ADDS METAR Data INFO
IDs: Format: Raw Decoded Include TAF

Data at: 0047 UTC 22 Oct 2017

KPEX 220033Z AUTO 26011KT 10SM OVC100 13/10 A2973 RMK AO2 LTG DSNT N AND NE T01250096
KPEX 220013Z AUTO 26008KT 10SM SCT055 OVC090 13/10 A2972 RMK AO2 T01250097
KPEX 212352Z AUTO 25008KT 10SM SCT040 OVC050 13/10 A2972 RMK AO2 T01260099
KPEX 212333Z AUTO 25007KT 10SM BKN048 OVC065 12/10 A2971 RMK AO2 LTG DSNT NE T01230101
KPEX 212313Z AUTO 27008KT 10SM VCTS SCT034 BKN048 OVC065 13/10 A2969 RMK AO2 LTG DSNT N THRU E T01250101
KPEX 212254Z AUTO 25007KT 10SM BKN032 OVC046 13/10 A2968 RMK AO2 LTG DSNT N THRU E P0005 T01260102
KPEX 212233Z AUTO 26011KT 10SM OVC030 13/11 A2967 RMK AO2 LTG DSNT NE AND E P0005 T01270105
KPEX 212213Z AUTO 27009KT 7SM +RA BKN028 OVC037 13/11 A2965 RMK AO2 LTG DSNT NE THRU SE P0002 T01290106
KPEX 212154Z AUTO 27009KT 10SM OVC024 13/11 A2964 RMK AO2 LTG DSNT NE THRU SE P0001 T01320109
KPEX 212133Z AUTO 28010KT 10SM VCTS OVC022 14/11 A2962 RMK AO2 LTG DSNT NE THRU SE P0001 T01350107
KPEX 212113Z AUTO 27015G22KT 7SM -VCTSRA BKN022 BKN026 OVC049 14/12 A2961 RMK AO2 LTG DSNT ALQS P0001 T01400121
KPEX 212053Z AUTO 16010G18KT 10SM -RA SCT024 BKN036 BKN050 20/17 A2956 RMK AO2 LTG DSNT S THRU NW T01950166
KPEX 212033Z AUTO 15010G18KT 10SM SCT020 SCT027 BKN070 20/17 A2955 RMK AO2 LTG DSNT S THRU NW T01980166
KPEX 212013Z AUTO 15016G22KT 10SM SCT021 BKN025 BKN031 20/17 A2954 RMK AO2 LTG DSNT SW AND W T02020166
KPEX 211953Z AUTO 16014G23KT 10SM SCT019 SCT026 SCT032 21/17 A2956 RMK AO2 LTG DSNT E T02070167
KPEX 211933Z AUTO 15014G19KT 10SM SCT019 SCT031 BKN046 21/17 A2955 RMK AO2 T02090169
KPEX 211914Z AUTO 16013G16KT 10SM BKN019 OVC023 20/17 A2957 RMK AO2 T01990166
KPEX 211853Z AUTO 17014G21KT 140V200 10SM BKN017 OVC023 20/17 A2958 RMK AO2 T01950165
KPEX 211833Z AUTO 16009G14KT 10SM OVC017 19/16 A2958 RMK AO2 T01910164
KPEX 211814Z AUTO 17012G20KT 10SM OVC015 19/16 A2959 RMK AO2 T01900163
KPEX 211753Z AUTO 16012G21KT 10SM OVC013 19/16 A2959 RMK AO2 T01850162 10185 20165
KPEX 211733Z AUTO 16011G20KT 10SM OVC011 18/16 A2959 RMK AO2 T01820160
KPEX 211714Z AUTO 16011G17KT 10SM OVC011 18/16 A2959 RMK AO2 T01770158
KPEX 211653Z AUTO 17013G20KT 10SM OVC009 18/16 A2959 RMK AO2 T01760157
KPEX 211633Z AUTO 16015G22KT 10SM OVC009 17/16 A2959 RMK AO2 T01730156
KPEX 211613Z AUTO 15010G20KT 10SM OVC009 17/15 A2959 RMK AO2 T01700154
KPEX 211553Z AUTO 15011G20KT 10SM OVC009 17/15 A2959 RMK AO2 T01670151
KPEX 211533Z AUTO 16012G20KT 10SM OVC009 17/15 A2959 RMK AO2 T01660150
KPEX 211513Z AUTO 16010G21KT 10SM OVC009 17/15 A2959 RMK AO2 T01660150
KPEX 211453Z AUTO 16014G19KT 10SM BKN011 OVC017 17/15 A2959 RMK AO2 T01660147
KPEX 211433Z AUTO 15012G19KT 10SM BKN021 OVC027 17/15 A2959 RMK AO2 T01660145
KPEX 211413Z AUTO 15012G17KT 10SM BKN027 OVC035 17/14 A2959 RMK AO2 T01680141
KPEX 211353Z AUTO 16011G15KT 10SM OVC035 17/14 A2959 RMK AO2 LTG DSNT NE AND SE T01690139
KPEX 211333Z AUTO 16011G14KT 10SM OVC033 17/14 A2958 RMK AO2 T01700136
KPEX 211313Z AUTO 17008G17KT 10SM OVC031 17/14 A2959 RMK AO2 LTG DSNT E AND SE T01670135
KPEX 211253Z AUTO 15013G18KT 10SM SCT020 OVC030 17/13 A2959 RMK AO2 T01650133
KPEX 211233Z AUTO 16011G18KT 10SM OVC020 17/13 A2959 RMK AO2 LTG DSNT E AND SE T01650132
KPEX 211213Z AUTO 15012G15KT 10SM BKN022 OVC030 17/13 A2959 RMK AO2 LTG DSNT E THRU S T01650131
KPEX 211153Z AUTO 16011G17KT 10SM BKN024 OVC030 17/13 A2959 RMK AO2 T01650132 10178 20163
KPEX 211133Z AUTO 15010G18KT 10SM BKN022 BKN030 16/13 A2959 RMK AO2 T01630131
KPEX 211113Z AUTO 14012KT 10SM SCT022 BKN032 17/13 A2959 RMK AO2 T01670133
KPEX 211053Z AUTO 16014G20KT 10SM SCT024 OVC030 17/14 A2958 RMK AO2 T01700135
KPEX 211033Z AUTO 14011G16KT 10SM BKN024 OVC032 17/14 A2959 RMK AO2 T01700136
KPEX 211013Z AUTO 15012G18KT 10SM SCT024 17/14 A2959 RMK AO2 T01700136
KPEX 210953Z AUTO 15014G18KT 10SM CLR 17/14 A2959 RMK AO2 T01700136
KPEX 210933Z AUTO 16014G19KT 10SM CLR 17/14 A2959 RMK AO2 T01720138
KPEX 210913Z AUTO 15014G19KT 10SM CLR 17/14 A2959 RMK AO2 T01720137
KPEX 210853Z AUTO 16013G22KT 10SM CLR 17/14 A2960 RMK AO2 T01730137
KPEX 210833Z AUTO 16015G19KT 10SM CLR 18/14 A2961 RMK AO2 T01750137
KPEX 210813Z AUTO 16012G20KT 10SM CLR 18/14 A2962 RMK AO2 T01760137
KPEX 210753Z AUTO 15012G21KT 10SM CLR 18/14 A2962 RMK AO2 T01770137
KPEX 210733Z AUTO 16014G22KT 10SM CLR 18/14 A2962 RMK AO2 T01780137
KPEX 210713Z AUTO 16013G21KT 10SM CLR 18/14 A2962 RMK AO2 T01770135
KPEX 210654Z AUTO 15012G22KT 10SM CLR 18/13 A2962 RMK AO2 T01760134
KPEX 210633Z AUTO 15013G21KT 10SM CLR 18/13 A2962 RMK AO2 T01750130
KPEX 210613Z AUTO 16014G22KT 10SM CLR 18/13 A2963 RMK AO2 T01750127
KPEX 210553Z AUTO 16018G26KT 10SM CLR 18/13 A2963 RMK AO2 T01760126 10213 20176 402510122
KPEX 210533Z AUTO 16017G23KT 10SM CLR 18/13 A2963 RMK AO2 T01800126
KPEX 210513Z AUTO 16016G22KT 10SM CLR 18/13 A2963 RMK AO2 T01810125
KPEX 210453Z AUTO 15015G22KT 10SM CLR 18/12 A2963 RMK AO2 T01820123
KPEX 210433Z AUTO 16014G22KT 10SM CLR 19/12 A2964 RMK AO2 T01850121
KPEX 210414Z AUTO 16014G19KT 10SM CLR 19/12 A2964 RMK AO2 T01850117
KPEX 210353Z AUTO 16014G22KT 10SM CLR 18/11 A2964 RMK AO2 T01840114
KPEX 210333Z AUTO 16011G19KT 10SM CLR 19/12 A2964 RMK AO2 T01850115
KPEX 210314Z AUTO 15013G18KT 10SM CLR 19/11 A2964 RMK AO2 T01870113
KPEX 210253Z AUTO 15015G20KT 10SM CLR 19/11 A2964 RMK AO2 T01880110
KPEX 210233Z AUTO 16012G21KT 10SM CLR 19/11 A2964 RMK AO2 T01900110
KPEX 210214Z AUTO 15013G16KT 10SM CLR 19/11 A2965 RMK AO2 T01920107
KPEX 210153Z AUTO 16012G22KT 10SM SCT120 20/11 A2965 RMK AO2 T01960106
KPEX 210133Z AUTO 17011G17KT 10SM SCT110 20/10 A2965 RMK AO2 T01980103
KPEX 210113Z AUTO 16014G21KT 10SM SCT110 20/10 A2965 RMK AO2 T02010100
KPEX 210053Z AUTO 16014G20KT 10SM CLR 20/10 A2965 RMK AO2 T02030100
KPEX 210033Z AUTO 16015G20KT 10SM CLR 21/10 A2964 RMK AO2 T02060102
KPEX 210014Z AUTO 15011G17KT 10SM CLR 21/10 A2964 RMK AO2 T02080101
KPEX 202353Z AUTO 16014G20KT 10SM CLR 22/10 A2964 RMK AO2 T02150100 10251 20215
KPEX 202333Z AUTO 16012G15KT 10SM CLR 22/10 A2964 RMK AO2 T02190102
KPEX 202313Z AUTO 16012G19KT 10SM CLR 23/10 A2964 RMK AO2 T02250100
KPEX 202253Z AUTO 16013G19KT 10SM CLR 23/10 A2964 RMK AO2 T02290103
KPEX 202234Z AUTO 16013G19KT 10SM CLR 24/10 A2965 RMK AO2 T02360104
KPEX 202213Z AUTO 16010G16KT 10SM CLR 24/10 A2965 RMK AO2 T02440100
KPEX 202153Z AUTO 17014G25KT 10SM CLR 25/10 A2965 RMK AO2 T02470100
KPEX 202134Z AUTO 18015G26KT 10SM CLR 25/10 A2966 RMK AO2 T02500102
KPEX 202113Z AUTO 16014G19KT 10SM CLR 25/12 A2965 RMK AO2 T02480115
KPEX 202053Z AUTO 17020G25KT 10SM CLR 25/11 A2967 RMK AO2 T02490109
KPEX 202034Z AUTO 17020G29KT 10SM CLR 25/11 A2967 RMK AO2 T02500107
KPEX 202013Z AUTO 17016G22KT 10SM CLR 25/11 A2967 RMK AO2 T02460113
KPEX 201953Z AUTO 15017G24KT 10SM CLR 25/11 A2968 RMK AO2 T02450111
KPEX 201933Z AUTO 17017G21KT 10SM CLR 25/11 A2969 RMK AO2 T02450112
KPEX 201913Z AUTO 16013G23KT 10SM CLR 24/11 A2970 RMK AO2 T02370111
KPEX 201853Z AUTO 17016G24KT 10SM CLR 24/11 A2971 RMK AO2 T02380114
KPEX 201833Z AUTO 17014G24KT 10SM CLR 23/11 A2972 RMK AO2 T02300113
KPEX 201813Z AUTO 17014G20KT 10SM CLR 23/12 A2974 RMK AO2 T02310115
KPEX 201753Z AUTO 18012G22KT 10SM CLR 23/11 A2974 RMK AO2 T02250109 10225 20128
KPEX 201733Z AUTO 17014G22KT 10SM CLR 22/11 A2975 RMK AO2 T02200112
KPEX 201713Z AUTO 17012G19KT 10SM CLR 21/12 A2976 RMK AO2 T02140116
KPEX 201653Z AUTO 19012G19KT 10SM CLR 20/11 A2977 RMK AO2 T02020112
KPEX 201633Z AUTO 19010KT 10SM CLR 20/11 A2978 RMK AO2 T01950111
KPEX 201613Z AUTO 18012G19KT 10SM CLR 19/11 A2979 RMK AO2 T01880111
KPEX 201553Z AUTO 19015G20KT 10SM CLR 18/11 A2979 RMK AO2 T01770107
KPEX 201533Z AUTO 19012G18KT 10SM CLR 17/11 A2980 RMK AO2 T01700106
KPEX 201513Z AUTO 19011G20KT 10SM CLR 16/11 A2981 RMK AO2 T01610105
KPEX 201453Z AUTO 18012G17KT 10SM CLR 16/10 A2981 RMK AO2 T01550101
KPEX 201433Z AUTO 17013G21KT 10SM CLR 15/10 A2982 RMK AO2 T01480098
KPEX 201413Z AUTO 17013G20KT 10SM CLR 15/10 A2982 RMK AO2 T01450097
KPEX 201353Z AUTO 18010G17KT 10SM CLR 14/10 A2982 RMK AO2 T01390096
KPEX 201333Z AUTO 18012KT 10SM CLR 13/10 A2982 RMK AO2 T01330095
KPEX 201313Z AUTO 17010G15KT 10SM CLR 13/09 A2982 RMK AO2 T01310094
KPEX 201254Z AUTO 17012KT 10SM CLR 13/09 A2981 RMK AO2 T01290094